Time;durP1;ratioP1;P1;durP2;ratioP2;P2;SDS_P1;SDS_P2;PMS_P1;PMS_P2;Temp;Humidity;BMP_temperature;BMP_pressure;BME280_temperature;BME280_humidity;BME280_pressure;Samples;Min_cycle;Max_cycle;Signal;HPM_P1;HPM_P2
2023/12/12 00:00:27;;;;;;;48.10;10.75;;;6.70;99.90;;;;;;5019313;28;20034;-88
2023/12/12 00:02:53;;;;;;;65.50;14.48;;;6.70;99.90;;;;;;5035835;28;20135;-90
2023/12/12 00:05:19;;;;;;;65.05;16.05;;;6.70;99.90;;;;;;5035739;28;20485;-90
2023/12/12 00:07:44;;;;;;;40.40;8.32;;;6.70;99.90;;;;;;5035625;28;20032;-90
2023/12/12 00:10:10;;;;;;;45.58;11.95;;;6.70;99.90;;;;;;5020599;28;20080;-90
2023/12/12 00:12:36;;;;;;;37.47;8.55;;;6.60;99.90;;;;;;5020886;28;20034;-88
2023/12/12 00:15:02;;;;;;;34.20;7.25;;;6.60;99.90;;;;;;5021450;28;20432;-88
2023/12/12 00:17:27;;;;;;;39.33;5.88;;;6.50;99.90;;;;;;5030818;28;20060;-88
2023/12/12 00:19:53;;;;;;;31.73;5.20;;;6.40;99.90;;;;;;5042776;28;20500;-87
2023/12/12 00:22:19;;;;;;;27.75;5.15;;;6.30;99.90;;;;;;5036224;28;20029;-87
2023/12/12 00:24:44;;;;;;;42.03;6.25;;;6.20;99.90;;;;;;5019457;28;20124;-87
2023/12/12 00:27:10;;;;;;;36.83;6.22;;;6.10;99.90;;;;;;5018441;28;20079;-87
2023/12/12 00:29:36;;;;;;;25.45;5.68;;;6.00;99.90;;;;;;5018752;28;20491;-88
2023/12/12 00:32:05;;;;;;;33.88;7.45;;;5.90;99.90;;;;;;5019069;28;20034;-87
2023/12/12 00:34:30;;;;;;;51.03;5.35;;;5.80;99.90;;;;;;5018704;28;20030;-88
2023/12/12 00:36:56;;;;;;;35.67;7.18;;;5.80;99.90;;;;;;5017817;28;20496;-88
2023/12/12 00:39:22;;;;;;;33.00;5.22;;;5.80;99.90;;;;;;5018731;28;20032;-88
2023/12/12 00:41:48;;;;;;;36.63;6.00;;;5.70;99.90;;;;;;5017390;28;20030;-88
2023/12/12 00:44:14;;;;;;;40.10;7.00;;;5.60;99.90;;;;;;5034893;28;20130;-88
2023/12/12 00:46:40;;;;;;;44.60;6.60;;;5.60;99.90;;;;;;5018241;28;20065;-90
2023/12/12 00:49:06;;;;;;;35.83;7.53;;;5.50;99.90;;;;;;5018226;28;20033;-90
2023/12/12 00:51:32;;;;;;;46.97;6.75;;;5.50;99.90;;;;;;5034480;28;20041;-90
2023/12/12 00:53:58;;;;;;;32.22;6.05;;;5.50;99.90;;;;;;5036025;28;20562;-91
2023/12/12 00:56:23;;;;;;;37.80;6.32;;;5.50;99.90;;;;;;5017915;28;20021;-90
2023/12/12 00:58:49;;;;;;;42.22;7.50;;;5.50;99.90;;;;;;5034801;28;20380;-90
2023/12/12 01:01:15;;;;;;;47.42;6.80;;;5.60;99.90;;;;;;5034656;28;20033;-90
2023/12/12 01:03:41;;;;;;;45.40;7.15;;;5.40;99.90;;;;;;5034810;28;20418;-90
2023/12/12 01:06:07;;;;;;;48.03;6.70;;;5.30;99.90;;;;;;5034561;28;20052;-90
2023/12/12 01:08:33;;;;;;;26.40;6.57;;;5.30;99.90;;;;;;5034630;28;20029;-90
2023/12/12 01:10:59;;;;;;;43.03;6.75;;;5.30;99.90;;;;;;5034132;28;20038;-89
2023/12/12 01:13:25;;;;;;;29.27;5.45;;;5.40;99.90;;;;;;5036527;28;20033;-90
2023/12/12 01:15:50;;;;;;;39.30;6.10;;;5.40;99.90;;;;;;5034716;28;20025;-90
2023/12/12 01:18:16;;;;;;;45.78;7.85;;;5.40;99.90;;;;;;5034071;28;20057;-90
2023/12/12 01:20:42;;;;;;;32.92;6.95;;;5.40;99.90;;;;;;5034252;28;20033;-90
2023/12/12 01:23:07;;;;;;;47.17;6.32;;;5.40;99.90;;;;;;5051348;28;20051;-90
2023/12/12 01:25:33;;;;;;;46.05;8.40;;;5.60;99.90;;;;;;5033909;28;20047;-90
2023/12/12 01:27:59;;;;;;;33.88;6.22;;;5.70;99.90;;;;;;5034144;28;20037;-88
2023/12/12 01:30:25;;;;;;;43.55;6.70;;;5.70;99.90;;;;;;5034241;28;20029;-88
2023/12/12 01:32:50;;;;;;;58.08;8.65;;;5.80;99.90;;;;;;5033831;28;20496;-88
2023/12/12 01:35:16;;;;;;;56.75;7.57;;;5.80;99.90;;;;;;5034268;28;20491;-88
2023/12/12 01:37:42;;;;;;;43.85;7.18;;;5.80;99.90;;;;;;5033354;28;20053;-87
2023/12/12 01:40:08;;;;;;;34.85;7.40;;;5.80;99.90;;;;;;5033723;28;20044;-90
2023/12/12 01:42:34;;;;;;;61.95;7.15;;;5.90;99.90;;;;;;5033587;28;20041;-87
2023/12/12 01:45:00;;;;;;;55.17;7.93;;;6.00;99.90;;;;;;5033825;28;20036;-88
2023/12/12 01:47:26;;;;;;;34.30;7.50;;;6.00;99.90;;;;;;5033912;28;20064;-87
2023/12/12 01:49:52;;;;;;;31.85;7.03;;;5.80;99.90;;;;;;5033355;28;20063;-87
2023/12/12 01:52:21;;;;;;;48.08;6.65;;;5.80;99.90;;;;;;5033134;28;20033;-87
2023/12/12 01:54:49;;;;;;;35.85;7.20;;;5.80;99.90;;;;;;5033684;28;20037;-88
2023/12/12 01:57:16;;;;;;;40.80;5.95;;;5.70;99.90;;;;;;5033587;28;20033;-88
2023/12/12 01:59:47;;;;;;;45.25;9.18;;;5.70;99.90;;;;;;5016866;28;20037;-87
2023/12/12 02:02:16;;;;;;;39.33;7.50;;;5.60;99.90;;;;;;5033760;28;20107;-88
2023/12/12 02:04:43;;;;;;;32.58;7.72;;;5.60;99.90;;;;;;5033466;28;20045;-87
2023/12/12 02:07:10;;;;;;;32.78;6.75;;;5.50;99.90;;;;;;5034269;28;20025;-88
2023/12/12 02:09:36;;;;;;;42.72;6.45;;;5.40;99.90;;;;;;5033208;28;20461;-88
2023/12/12 02:12:02;;;;;;;35.03;6.10;;;5.20;99.90;;;;;;5033317;28;20090;-88
2023/12/12 02:14:28;;;;;;;40.33;7.07;;;5.10;99.90;;;;;;5033529;28;20120;-88
2023/12/12 02:16:53;;;;;;;52.88;8.52;;;5.00;99.90;;;;;;5033126;28;20175;-88
2023/12/12 02:19:19;;;;;;;32.95;6.75;;;4.90;99.90;;;;;;5033480;28;20449;-90
2023/12/12 02:21:45;;;;;;;42.20;7.45;;;4.90;99.90;;;;;;5033315;28;20037;-88
2023/12/12 02:24:10;;;;;;;37.85;7.57;;;4.80;99.90;;;;;;5032955;28;20417;-90
2023/12/12 02:26:36;;;;;;;44.50;7.90;;;4.80;99.90;;;;;;5033169;28;20134;-87
2023/12/12 02:29:03;;;;;;;57.45;7.97;;;4.80;99.90;;;;;;5032979;28;20041;-88
2023/12/12 02:31:28;;;;;;;36.25;6.93;;;4.80;99.90;;;;;;5049486;28;20057;-88
2023/12/12 02:33:54;;;;;;;55.22;10.32;;;4.90;99.90;;;;;;5033448;28;20033;-88
2023/12/12 02:36:21;;;;;;;36.28;7.20;;;4.80;99.90;;;;;;5066295;28;20384;-87
2023/12/12 02:38:46;;;;;;;44.45;9.13;;;4.70;99.90;;;;;;5015351;28;20120;-88
2023/12/12 02:41:13;;;;;;;61.13;8.25;;;4.70;99.90;;;;;;5033051;28;20448;-88
2023/12/12 02:43:38;;;;;;;45.30;7.70;;;4.80;99.90;;;;;;5033615;28;20037;-88
2023/12/12 02:46:04;;;;;;;38.17;10.75;;;4.70;99.90;;;;;;5050120;28;20030;-88
2023/12/12 02:48:30;;;;;;;43.90;9.20;;;4.70;99.90;;;;;;5049911;28;20096;-88
2023/12/12 02:50:55;;;;;;;39.92;7.65;;;4.60;99.90;;;;;;5032984;28;20030;-88
2023/12/12 02:53:21;;;;;;;42.42;9.27;;;4.50;99.90;;;;;;5033346;28;20439;-88
2023/12/12 02:55:47;;;;;;;49.88;9.48;;;4.50;99.90;;;;;;5033115;28;20035;-88
2023/12/12 02:58:12;;;;;;;55.50;8.77;;;4.50;99.90;;;;;;5017032;28;20024;-88
2023/12/12 03:00:38;;;;;;;53.00;7.85;;;4.60;99.90;;;;;;5032817;28;20021;-88
2023/12/12 03:03:04;;;;;;;46.92;8.88;;;4.50;99.90;;;;;;5034305;28;20029;-87
2023/12/12 03:05:30;;;;;;;49.53;11.40;;;4.50;99.90;;;;;;5035967;28;20044;-87
2023/12/12 03:07:55;;;;;;;54.35;10.77;;;4.50;99.90;;;;;;5036759;28;20400;-88
2023/12/12 03:10:21;;;;;;;56.13;10.38;;;4.50;99.90;;;;;;5036750;28;20029;-88
2023/12/12 03:12:47;;;;;;;49.40;11.73;;;4.50;99.90;;;;;;5069603;28;20112;-88
2023/12/12 03:15:12;;;;;;;49.75;9.20;;;4.50;99.90;;;;;;5036509;28;20026;-87
2023/12/12 03:17:38;;;;;;;63.67;12.55;;;4.60;99.90;;;;;;5037465;28;20029;-88
2023/12/12 03:20:05;;;;;;;46.70;10.20;;;4.60;99.90;;;;;;5053009;28;20111;-88
2023/12/12 03:22:30;;;;;;;47.03;10.02;;;4.70;99.90;;;;;;5052882;28;20037;-88
2023/12/12 03:24:56;;;;;;;70.63;19.83;;;4.80;99.90;;;;;;5053050;28;20029;-88
2023/12/12 03:27:22;;;;;;;76.32;22.77;;;4.80;99.90;;;;;;5052882;28;20041;-88
2023/12/12 03:29:47;;;;;;;63.75;11.80;;;4.90;99.90;;;;;;5035994;28;20037;-88
2023/12/12 03:32:13;;;;;;;55.08;15.07;;;4.90;99.90;;;;;;5052736;28;20080;-88
2023/12/12 03:34:39;;;;;;;63.95;10.82;;;4.80;99.90;;;;;;5052938;28;20033;-88
2023/12/12 03:37:05;;;;;;;42.65;10.23;;;4.80;99.90;;;;;;5052854;28;20021;-88
2023/12/12 03:39:31;;;;;;;60.10;10.57;;;4.70;99.90;;;;;;5068831;28;20037;-87
2023/12/12 03:41:57;;;;;;;53.22;10.70;;;4.70;99.90;;;;;;5036124;28;20029;-88
2023/12/12 03:44:22;;;;;;;40.80;9.02;;;4.70;99.90;;;;;;5069371;28;20067;-88
2023/12/12 03:46:48;;;;;;;62.60;12.32;;;4.60;99.90;;;;;;5035891;28;20037;-88
2023/12/12 03:49:14;;;;;;;44.30;11.98;;;4.60;99.90;;;;;;5053146;28;20041;-88
2023/12/12 03:51:39;;;;;;;43.00;9.55;;;4.50;99.90;;;;;;5035811;28;20464;-88
2023/12/12 03:54:05;;;;;;;49.20;10.43;;;4.50;99.90;;;;;;5035554;28;20614;-87
2023/12/12 03:56:31;;;;;;;40.88;8.73;;;4.60;99.90;;;;;;5069398;28;20054;-88
2023/12/12 03:58:58;;;;;;;36.08;8.45;;;4.50;99.90;;;;;;5052670;28;20025;-89
2023/12/12 04:01:24;;;;;;;45.90;10.23;;;4.50;99.90;;;;;;5035672;28;20416;-87
2023/12/12 04:03:49;;;;;;;57.95;10.13;;;4.60;99.90;;;;;;5035345;28;20048;-88
2023/12/12 04:06:15;;;;;;;46.30;9.60;;;4.60;99.90;;;;;;5069228;28;20033;-88
2023/12/12 04:08:41;;;;;;;51.30;9.75;;;4.70;99.90;;;;;;5035746;28;20029;-87
2023/12/12 04:11:06;;;;;;;57.67;8.82;;;4.70;99.90;;;;;;5035138;28;20029;-87
2023/12/12 04:13:32;;;;;;;51.85;10.40;;;4.70;99.90;;;;;;5035804;28;20092;-87
2023/12/12 04:15:58;;;;;;;50.03;9.70;;;4.70;99.90;;;;;;5068523;28;20052;-88
2023/12/12 04:18:24;;;;;;;49.50;9.73;;;4.70;99.90;;;;;;5051709;28;20083;-87
2023/12/12 04:20:49;;;;;;;37.30;8.75;;;4.60;99.90;;;;;;5035069;28;20036;-88
2023/12/12 04:23:15;;;;;;;46.42;10.27;;;4.70;99.90;;;;;;5019031;28;20097;-88
2023/12/12 04:25:41;;;;;;;45.38;10.18;;;4.70;99.90;;;;;;5068862;28;20030;-88
2023/12/12 04:28:07;;;;;;;43.97;9.80;;;4.80;99.90;;;;;;5052053;28;20029;-88
2023/12/12 04:30:33;;;;;;;57.45;10.45;;;4.80;99.90;;;;;;5052176;28;20044;-88
2023/12/12 04:32:59;;;;;;;47.50;8.68;;;4.80;99.90;;;;;;5051999;28;20504;-88
2023/12/12 04:35:24;;;;;;;46.83;8.90;;;4.90;99.90;;;;;;5018301;28;20029;-88
2023/12/12 04:37:50;;;;;;;52.33;8.15;;;4.90;99.90;;;;;;5034892;28;20022;-89
2023/12/12 04:40:16;;;;;;;48.00;8.38;;;4.90;99.90;;;;;;5034395;28;20032;-88
2023/12/12 04:42:42;;;;;;;48.78;9.50;;;4.90;99.90;;;;;;5051368;28;20044;-88
2023/12/12 04:45:08;;;;;;;47.35;10.38;;;5.00;99.90;;;;;;5018345;28;20037;-87
2023/12/12 04:47:34;;;;;;;57.30;11.40;;;5.00;99.90;;;;;;5051477;28;20065;-88
2023/12/12 04:49:59;;;;;;;51.45;12.50;;;5.00;99.90;;;;;;5051293;28;20068;-88
2023/12/12 04:52:25;;;;;;;58.30;14.80;;;5.10;99.90;;;;;;5051517;28;20033;-88
2023/12/12 04:54:51;;;;;;;65.43;18.63;;;5.10;99.90;;;;;;5036598;28;20385;-88
2023/12/12 04:57:17;;;;;;;73.28;17.60;;;5.10;99.90;;;;;;5034634;28;20025;-88
2023/12/12 04:59:44;;;;;;;71.03;17.15;;;5.10;99.90;;;;;;5051123;28;20095;-87
2023/12/12 05:02:10;;;;;;;62.38;15.15;;;5.20;99.90;;;;;;5051606;28;20030;-87
2023/12/12 05:04:37;;;;;;;55.83;14.57;;;5.10;99.90;;;;;;5051084;28;20029;-88
2023/12/12 05:07:04;;;;;;;54.35;12.95;;;5.20;99.90;;;;;;5034609;28;20381;-88
2023/12/12 05:09:29;;;;;;;50.92;12.63;;;5.20;99.90;;;;;;5051615;28;20038;-88
2023/12/12 05:11:55;;;;;;;52.58;14.77;;;5.20;99.90;;;;;;5052174;28;20393;-87
2023/12/12 05:14:21;;;;;;;60.15;13.90;;;5.20;99.90;;;;;;5053044;28;20483;-88
2023/12/12 05:16:47;;;;;;;66.43;13.35;;;5.20;99.90;;;;;;5053247;28;20076;-87
2023/12/12 05:19:12;;;;;;;37.85;10.75;;;5.20;99.90;;;;;;5054819;28;20604;-88
2023/12/12 05:21:38;;;;;;;59.38;11.85;;;5.20;99.90;;;;;;5063629;28;20040;-88
2023/12/12 05:24:05;;;;;;;76.28;13.38;;;5.20;99.90;;;;;;5052285;28;20445;-88
2023/12/12 05:26:31;;;;;;;49.70;11.68;;;5.20;99.90;;;;;;5051140;28;20497;-87
2023/12/12 05:28:57;;;;;;;54.75;11.45;;;5.30;99.90;;;;;;5067463;28;20037;-87
2023/12/12 05:31:24;;;;;;;56.47;12.40;;;5.30;99.90;;;;;;5068009;28;20380;-88
2023/12/12 05:33:49;;;;;;;57.03;13.13;;;5.30;99.90;;;;;;5034280;28;20029;-88
2023/12/12 05:36:15;;;;;;;54.47;13.05;;;5.40;99.90;;;;;;5051049;28;20120;-88
2023/12/12 05:38:41;;;;;;;56.47;14.32;;;5.40;99.90;;;;;;5067754;28;20018;-88
2023/12/12 05:41:06;;;;;;;67.25;16.63;;;5.50;99.90;;;;;;5033921;28;20057;-88
2023/12/12 05:43:32;;;;;;;67.80;17.13;;;5.50;99.90;;;;;;5050503;28;20461;-88
2023/12/12 05:45:58;;;;;;;62.35;15.63;;;5.50;99.90;;;;;;5050689;28;20068;-88
2023/12/12 05:48:24;;;;;;;61.88;18.02;;;5.50;99.90;;;;;;5033862;28;20396;-88
2023/12/12 05:50:49;;;;;;;70.80;18.17;;;5.50;99.90;;;;;;5049543;28;20028;-88
2023/12/12 05:53:15;;;;;;;86.70;20.60;;;5.50;99.90;;;;;;5067977;28;20025;-87
2023/12/12 05:55:41;;;;;;;90.63;19.55;;;5.60;99.90;;;;;;5050668;28;20037;-88
2023/12/12 05:58:06;;;;;;;87.47;19.20;;;5.50;99.90;;;;;;5068180;28;20455;-88
2023/12/12 06:00:33;;;;;;;84.30;16.48;;;5.60;99.90;;;;;;5033599;28;20032;-90
2023/12/12 06:02:58;;;;;;;79.20;17.13;;;5.60;99.90;;;;;;5068045;28;20033;-90
2023/12/12 06:05:24;;;;;;;62.72;16.58;;;5.50;99.90;;;;;;5034535;28;20040;-91
2023/12/12 06:07:50;;;;;;;70.28;15.70;;;5.60;99.90;;;;;;5034906;28;20037;-90
2023/12/12 06:10:18;;;;;;;80.07;17.98;;;5.50;99.90;;;;;;5066599;28;20068;-91
2023/12/12 06:12:44;;;;;;;59.33;16.17;;;5.50;99.90;;;;;;5034408;28;20068;-90
2023/12/12 06:15:10;;;;;;;77.95;16.02;;;5.50;99.90;;;;;;5033734;28;20021;-90
2023/12/12 06:17:36;;;;;;;62.35;15.25;;;5.40;99.90;;;;;;5050514;28;20033;-90
2023/12/12 06:20:03;;;;;;;63.92;15.80;;;5.20;99.90;;;;;;5066967;28;20433;-90
2023/12/12 06:22:28;;;;;;;52.38;13.07;;;5.10;99.90;;;;;;5050191;28;20477;-88
2023/12/12 06:24:54;;;;;;;54.22;14.55;;;4.90;99.90;;;;;;5050046;28;20044;-88
2023/12/12 06:27:20;;;;;;;61.03;14.38;;;4.70;99.90;;;;;;5050138;28;20461;-87
2023/12/12 06:29:46;;;;;;;62.75;14.95;;;4.60;99.90;;;;;;5066754;28;20487;-87
2023/12/12 06:32:12;;;;;;;64.75;13.93;;;4.50;99.90;;;;;;5034739;28;20044;-88
2023/12/12 06:34:38;;;;;;;56.95;12.95;;;4.50;99.90;;;;;;5050522;28;20029;-88
2023/12/12 06:37:04;;;;;;;55.13;13.75;;;4.60;99.90;;;;;;5049792;28;20379;-87
2023/12/12 06:39:31;;;;;;;56.25;12.90;;;4.80;99.90;;;;;;5051649;28;20485;-88
2023/12/12 06:41:56;;;;;;;65.60;11.80;;;4.90;99.90;;;;;;5054454;28;20033;-90
2023/12/12 06:44:22;;;;;;;40.92;10.45;;;5.00;99.90;;;;;;5054137;28;20033;-89
2023/12/12 06:46:48;;;;;;;53.53;11.55;;;5.20;99.90;;;;;;5070639;28;20038;-88
2023/12/12 06:49:13;;;;;;;76.80;14.43;;;5.30;99.90;;;;;;5070695;28;20033;-88
2023/12/12 06:51:39;;;;;;;45.17;12.40;;;5.30;99.90;;;;;;5070497;28;20037;-87
2023/12/12 06:54:04;;;;;;;43.15;13.98;;;5.30;99.90;;;;;;5052490;28;20063;-88
2023/12/12 06:56:33;;;;;;;46.38;13.50;;;5.30;99.90;;;;;;5053781;28;20072;-89
2023/12/12 06:58:59;;;;;;;56.70;14.35;;;5.30;99.90;;;;;;5052927;28;20033;-88
2023/12/12 07:01:24;;;;;;;32.15;11.63;;;5.20;99.90;;;;;;5036346;28;20021;-88
2023/12/12 07:03:50;;;;;;;46.33;13.35;;;5.10;99.90;;;;;;5053291;28;20040;-88
2023/12/12 07:06:18;;;;;;;33.83;12.93;;;5.10;99.90;;;;;;5053477;28;20025;-88
2023/12/12 07:08:44;;;;;;;60.78;18.00;;;5.00;99.90;;;;;;5053098;28;20132;-88
2023/12/12 07:11:11;;;;;;;70.90;22.75;;;5.00;99.90;;;;;;5053074;28;20064;-89
2023/12/12 07:13:37;;;;;;;64.65;22.88;;;5.00;99.90;;;;;;5051118;28;20068;-87
2023/12/12 07:16:04;;;;;;;66.75;21.67;;;5.20;99.90;;;;;;5035042;28;20384;-87
2023/12/12 07:18:30;;;;;;;69.32;14.77;;;5.30;99.90;;;;;;5051585;28;20452;-87
2023/12/12 07:20:57;;;;;;;58.20;11.48;;;5.40;99.90;;;;;;5067714;28;20061;-86
2023/12/12 07:23:23;;;;;;;53.95;12.77;;;5.60;99.90;;;;;;5050887;28;20030;-87
2023/12/12 07:25:49;;;;;;;66.13;11.18;;;5.80;99.90;;;;;;5034248;28;20035;-87
2023/12/12 07:28:15;;;;;;;58.50;9.40;;;5.90;99.90;;;;;;5067619;28;20549;-87
2023/12/12 07:30:42;;;;;;;50.00;10.77;;;6.00;99.90;;;;;;5017696;28;20029;-87
2023/12/12 07:33:08;;;;;;;58.67;9.82;;;6.10;99.90;;;;;;5050770;28;20067;-87
2023/12/12 07:35:33;;;;;;;59.58;10.15;;;6.10;99.90;;;;;;5033727;28;20084;-86
2023/12/12 07:38:01;;;;;;;64.38;10.55;;;6.10;99.90;;;;;;5034067;28;20057;-86
2023/12/12 07:40:30;;;;;;;48.00;10.25;;;6.20;99.90;;;;;;5051091;28;20045;-86
2023/12/12 07:42:56;;;;;;;58.40;12.10;;;6.20;99.90;;;;;;5050214;28;20037;-86
2023/12/12 07:45:22;;;;;;;61.33;10.82;;;6.20;99.90;;;;;;5033497;28;20037;-86
2023/12/12 07:47:48;;;;;;;52.17;12.48;;;6.20;99.90;;;;;;5050632;28;20032;-86
2023/12/12 07:50:17;;;;;;;60.58;15.25;;;6.30;99.90;;;;;;5049841;28;20029;-86
2023/12/12 07:52:47;;;;;;;51.50;15.23;;;6.20;99.90;;;;;;5050227;28;20040;-86
2023/12/12 07:55:13;;;;;;;80.43;18.83;;;6.20;99.90;;;;;;5050170;28;20048;-87
2023/12/12 07:57:39;;;;;;;269.35;25.95;;;6.10;99.90;;;;;;5049613;28;20029;-86
2023/12/12 08:00:10;;;;;;;264.55;26.48;;;6.10;99.90;;;;;;5050348;28;20473;-86
2023/12/12 08:02:38;;;;;;;169.18;21.73;;;6.00;99.90;;;;;;5049768;28;20481;-87
2023/12/12 08:05:06;;;;;;;63.83;19.02;;;6.00;99.90;;;;;;5033780;28;20036;-87
2023/12/12 08:07:32;;;;;;;54.88;18.08;;;6.00;99.90;;;;;;5050001;28;20030;-87
2023/12/12 08:09:58;;;;;;;50.95;15.45;;;6.10;99.90;;;;;;5049669;28;20068;-87
2023/12/12 08:12:26;;;;;;;52.65;13.35;;;6.00;99.90;;;;;;5066511;28;20795;-86
2023/12/12 08:14:55;;;;;;;35.53;11.80;;;5.90;99.90;;;;;;5066717;28;20036;-87
2023/12/12 08:17:21;;;;;;;51.67;13.18;;;5.90;99.90;;;;;;5050150;28;20034;-86
2023/12/12 08:19:47;;;;;;;36.67;11.18;;;5.90;99.90;;;;;;5066382;28;20440;-87
2023/12/12 08:22:13;;;;;;;45.15;11.35;;;5.80;99.90;;;;;;5066107;28;20112;-86
2023/12/12 08:24:38;;;;;;;31.48;10.73;;;5.80;99.90;;;;;;5066383;28;20082;-86
2023/12/12 08:27:04;;;;;;;26.25;10.07;;;5.70;99.90;;;;;;5032463;28;20048;-86
2023/12/12 08:29:30;;;;;;;31.00;11.45;;;5.80;99.90;;;;;;5049550;28;20738;-86
2023/12/12 08:31:55;;;;;;;37.17;11.32;;;5.70;99.90;;;;;;5049077;28;20397;-86
2023/12/12 08:34:21;;;;;;;34.05;11.77;;;5.70;99.90;;;;;;5049947;28;20057;-86
2023/12/12 08:36:47;;;;;;;36.45;12.00;;;5.80;99.90;;;;;;5049381;28;20037;-86
2023/12/12 08:39:13;;;;;;;43.72;13.30;;;5.80;99.90;;;;;;5066425;28;20599;-86
2023/12/12 08:41:39;;;;;;;35.50;12.35;;;5.80;99.90;;;;;;5034118;28;20086;-86
2023/12/12 08:44:04;;;;;;;41.58;14.38;;;5.80;99.90;;;;;;5032839;28;20083;-87
2023/12/12 08:46:30;;;;;;;33.75;13.23;;;5.90;99.90;;;;;;5066473;28;20034;-87
2023/12/12 08:48:57;;;;;;;32.03;11.85;;;5.90;99.90;;;;;;5049410;28;20366;-87
2023/12/12 08:51:24;;;;;;;33.30;11.85;;;5.90;99.90;;;;;;5049401;28;20041;-87
2023/12/12 08:53:51;;;;;;;39.67;12.80;;;5.90;99.90;;;;;;5048591;28;20033;-86
2023/12/12 08:56:17;;;;;;;30.23;12.25;;;5.90;99.90;;;;;;5050141;28;20029;-87
2023/12/12 08:58:49;;;;;;;30.73;11.70;;;5.90;99.90;;;;;;5034401;28;20048;-87
2023/12/12 09:01:19;;;;;;;39.67;10.63;;;5.90;99.90;;;;;;5050455;28;20385;-87
2023/12/12 09:03:45;;;;;;;30.13;11.55;;;5.90;99.90;;;;;;5048469;28;20087;-87
2023/12/12 09:06:11;;;;;;;25.65;11.82;;;5.90;99.90;;;;;;5048958;28;20034;-87
2023/12/12 09:08:41;;;;;;;22.17;11.80;;;5.80;99.90;;;;;;5049000;28;20103;-87
2023/12/12 09:11:09;;;;;;;26.50;11.05;;;5.80;99.90;;;;;;5031885;28;20124;-87
2023/12/12 09:13:35;;;;;;;23.77;10.82;;;5.90;99.90;;;;;;5065321;28;20092;-87
2023/12/12 09:16:01;;;;;;;26.23;10.60;;;5.80;99.90;;;;;;5032341;28;20477;-87
2023/12/12 09:18:26;;;;;;;23.27;9.98;;;5.80;99.90;;;;;;5032851;28;20464;-87
2023/12/12 09:20:52;;;;;;;26.23;8.95;;;5.90;99.90;;;;;;5032163;28;20037;-87
2023/12/12 09:23:18;;;;;;;25.40;9.88;;;5.90;99.90;;;;;;5031525;28;20396;-86
2023/12/12 09:25:43;;;;;;;23.38;9.60;;;5.90;99.90;;;;;;5030911;28;20121;-87
2023/12/12 09:28:09;;;;;;;30.35;9.85;;;5.90;99.90;;;;;;5015140;28;20030;-87
2023/12/12 09:30:35;;;;;;;26.45;9.57;;;5.90;99.90;;;;;;5031324;28;20037;-88
2023/12/12 09:33:00;;;;;;;26.70;10.35;;;6.00;99.90;;;;;;5031397;28;20501;-87
2023/12/12 09:35:26;;;;;;;31.35;8.80;;;6.00;99.90;;;;;;5031999;28;20025;-87
2023/12/12 09:37:52;;;;;;;29.45;10.68;;;6.00;99.90;;;;;;5030655;28;20082;-86
2023/12/12 09:40:18;;;;;;;23.30;8.15;;;6.10;99.90;;;;;;5048036;28;20175;-87
2023/12/12 09:42:47;;;;;;;18.80;8.23;;;6.10;99.90;;;;;;5033127;28;20040;-87
2023/12/12 09:45:15;;;;;;;33.55;9.30;;;6.20;99.90;;;;;;5031076;28;20045;-86
2023/12/12 09:47:45;;;;;;;28.80;8.18;;;6.20;99.90;;;;;;5031488;28;20030;-87
2023/12/12 09:50:12;;;;;;;24.33;8.00;;;6.10;99.90;;;;;;5031781;28;20075;-87
2023/12/12 09:52:38;;;;;;;20.17;7.47;;;6.20;99.90;;;;;;5030942;28;20473;-87
2023/12/12 09:55:05;;;;;;;19.98;7.05;;;6.20;99.90;;;;;;5048032;28;20789;-87
2023/12/12 09:57:32;;;;;;;18.38;7.70;;;6.20;99.90;;;;;;5031133;28;20029;-87
2023/12/12 09:59:58;;;;;;;17.23;6.88;;;6.20;99.90;;;;;;5031382;28;20033;-87
2023/12/12 10:02:34;;;;;;;17.48;6.97;;;6.20;99.90;;;;;;5031334;28;20033;-87
2023/12/12 10:05:04;;;;;;;19.08;6.00;;;6.20;99.90;;;;;;5031250;28;20030;-86
2023/12/12 10:07:31;;;;;;;18.55;5.85;;;6.20;99.90;;;;;;5031526;28;20091;-87
2023/12/12 10:09:57;;;;;;;26.60;6.32;;;6.20;99.90;;;;;;5031450;28;20716;-87
2023/12/12 10:12:22;;;;;;;15.10;6.43;;;6.20;99.90;;;;;;5030966;28;20030;-87
2023/12/12 10:14:48;;;;;;;21.90;5.07;;;6.30;99.90;;;;;;5031249;28;20117;-87
2023/12/12 10:17:15;;;;;;;13.57;4.93;;;6.40;99.90;;;;;;5031342;28;20060;-87
2023/12/12 10:19:41;;;;;;;17.10;6.20;;;6.40;99.90;;;;;;5031746;28;20076;-87
2023/12/12 10:22:08;;;;;;;11.48;5.22;;;6.40;99.90;;;;;;5031695;28;20095;-87
2023/12/12 10:24:35;;;;;;;19.40;5.20;;;6.50;99.90;;;;;;5031548;28;20037;-87
2023/12/12 10:27:02;;;;;;;14.77;4.80;;;6.40;99.90;;;;;;5031595;28;20040;-87
2023/12/12 10:29:30;;;;;;;12.68;5.28;;;6.50;99.90;;;;;;5031069;28;20703;-87
2023/12/12 10:32:02;;;;;;;14.00;4.10;;;6.50;99.90;;;;;;5030992;28;20072;-87
2023/12/12 10:34:28;;;;;;;12.52;4.75;;;6.50;99.90;;;;;;5030340;28;20033;-87
2023/12/12 10:36:54;;;;;;;13.75;5.15;;;6.50;99.90;;;;;;5030635;28;20204;-86
2023/12/12 10:39:20;;;;;;;14.55;4.78;;;6.50;99.90;;;;;;5030851;28;20045;-87
2023/12/12 10:41:52;;;;;;;15.10;4.68;;;6.60;99.90;;;;;;5030625;28;20111;-87
2023/12/12 10:44:32;;;;;;;19.15;5.05;;;6.60;99.90;;;;;;5031029;28;20120;-87
2023/12/12 10:47:14;;;;;;;11.85;5.38;;;6.70;99.90;;;;;;5031505;28;20048;-87
2023/12/12 10:49:45;;;;;;;16.75;5.03;;;6.70;99.90;;;;;;5031702;28;20752;-87
2023/12/12 10:52:13;;;;;;;11.55;5.32;;;6.70;99.90;;;;;;5034233;28;20040;-87
2023/12/12 10:54:42;;;;;;;12.73;4.95;;;6.70;99.90;;;;;;5014100;28;20042;-86
2023/12/12 10:57:09;;;;;;;14.80;5.97;;;6.70;99.90;;;;;;5030424;28;20088;-87
2023/12/12 10:59:37;;;;;;;14.75;6.28;;;6.70;99.90;;;;;;5030790;28;20029;-87
2023/12/12 11:02:04;;;;;;;17.55;6.80;;;6.80;99.90;;;;;;5030912;28;20079;-87
2023/12/12 11:04:30;;;;;;;8.45;5.55;;;6.70;99.90;;;;;;5030656;28;20029;-86
2023/12/12 11:06:56;;;;;;;18.38;6.82;;;6.70;99.90;;;;;;5030478;28;20037;-87
2023/12/12 11:09:22;;;;;;;17.30;6.78;;;6.80;99.90;;;;;;5030561;28;20493;-87
2023/12/12 11:11:50;;;;;;;13.75;5.90;;;6.80;99.90;;;;;;5030088;28;20039;-87
2023/12/12 11:14:18;;;;;;;19.38;6.60;;;6.80;99.90;;;;;;5030499;28;20025;-87
2023/12/12 11:16:43;;;;;;;11.68;6.13;;;6.80;99.90;;;;;;5031246;28;20136;-87
2023/12/12 11:19:16;;;;;;;19.60;6.75;;;6.80;99.90;;;;;;5015135;28;20128;-87
2023/12/12 11:21:47;;;;;;;9.70;5.57;;;6.80;99.90;;;;;;5031443;28;20040;-86
2023/12/12 11:24:14;;;;;;;20.55;6.03;;;6.90;99.90;;;;;;5047354;28;20030;-86
2023/12/12 11:26:44;;;;;;;21.85;7.75;;;7.00;99.90;;;;;;5033228;28;20038;-86
2023/12/12 11:29:18;;;;;;;14.00;6.35;;;7.00;99.90;;;;;;5034903;28;20045;-86
2023/12/12 11:31:59;;;;;;;15.00;7.57;;;7.00;99.90;;;;;;5034553;28;20048;-86
2023/12/12 11:34:25;;;;;;;14.30;5.80;;;7.00;99.90;;;;;;5049897;28;20068;-86
2023/12/12 11:36:58;;;;;;;13.20;5.68;;;6.70;99.90;;;;;;5034383;28;20034;-87
2023/12/12 11:39:37;;;;;;;13.57;6.00;;;6.60;99.90;;;;;;5034969;28;20033;-87
2023/12/12 11:42:20;;;;;;;20.85;7.95;;;6.60;99.90;;;;;;5033041;28;20030;-87
2023/12/12 11:44:51;;;;;;;16.58;6.80;;;6.50;99.90;;;;;;5033731;28;20033;-88
2023/12/12 11:47:20;;;;;;;20.63;8.18;;;6.40;99.90;;;;;;5033380;28;20057;-87
2023/12/12 11:49:47;;;;;;;18.92;8.40;;;6.40;99.90;;;;;;5033154;28;20514;-88
2023/12/12 11:52:38;;;;;;;22.20;9.88;;;6.40;99.90;;;;;;5032593;28;20029;-87
2023/12/12 11:55:05;;;;;;;30.90;14.73;;;6.40;99.90;;;;;;5032846;28;20079;-87
2023/12/12 11:57:30;;;;;;;26.25;13.50;;;6.40;99.90;;;;;;5066530;28;20473;-87
2023/12/12 12:00:00;;;;;;;27.52;12.63;;;6.40;99.90;;;;;;5049751;28;20037;-87
2023/12/12 12:02:29;;;;;;;24.52;12.68;;;6.40;99.90;;;;;;5034448;28;20041;-87
2023/12/12 12:04:55;;;;;;;17.48;9.70;;;6.40;99.90;;;;;;5049198;28;20029;-86
2023/12/12 12:07:21;;;;;;;25.10;10.13;;;6.40;99.90;;;;;;5033519;28;20439;-87
2023/12/12 12:09:49;;;;;;;20.45;11.82;;;6.40;99.90;;;;;;5067207;28;20034;-86
2023/12/12 12:12:16;;;;;;;23.17;10.73;;;6.40;99.90;;;;;;5049800;28;20425;-87
2023/12/12 12:14:41;;;;;;;21.70;11.23;;;6.40;99.90;;;;;;5049736;28;20029;-87
2023/12/12 12:17:08;;;;;;;20.55;10.77;;;6.40;99.90;;;;;;5049578;28;20488;-88
2023/12/12 12:19:35;;;;;;;27.08;12.75;;;6.40;99.90;;;;;;5049612;28;20051;-87
2023/12/12 12:22:02;;;;;;;30.65;12.60;;;6.40;99.90;;;;;;5033605;28;20034;-88
2023/12/12 12:24:29;;;;;;;29.05;13.57;;;6.40;99.90;;;;;;5067222;28;20041;-87
2023/12/12 12:26:55;;;;;;;30.23;14.07;;;6.40;99.90;;;;;;5050006;28;20030;-87
2023/12/12 12:29:21;;;;;;;27.48;13.90;;;6.40;99.90;;;;;;5050578;28;20029;-87
2023/12/12 12:31:46;;;;;;;29.80;13.52;;;6.40;99.90;;;;;;5049638;28;20678;-87
2023/12/12 12:34:19;;;;;;;24.63;13.07;;;6.40;99.90;;;;;;5032948;28;20033;-88
2023/12/12 12:36:53;;;;;;;27.98;13.43;;;6.40;99.90;;;;;;5066452;28;20029;-88